Time;durP1;ratioP1;P1;durP2;ratioP2;P2;SDS_P1;SDS_P2;PMS_P1;PMS_P2;Temp;Humidity;BMP_temperature;BMP_pressure;BME280_temperature;BME280_humidity;BME280_pressure;Samples;Min_cycle;Max_cycle;Signal;HPM_P1;HPM_P2
2022/11/18 00:01:11;;;;;;;20.37;12.27;;;14.20;65.50;;;;;;5075697;28;20458;-86
2022/11/18 00:03:39;;;;;;;23.10;13.30;;;14.20;65.40;;;;;;5067406;28;20452;-84
2022/11/18 00:06:08;;;;;;;24.67;13.43;;;14.10;65.50;;;;;;5077532;28;20464;-85
2022/11/18 00:08:35;;;;;;;29.90;12.47;;;13.80;65.70;;;;;;5093206;28;20452;-85
2022/11/18 00:11:05;;;;;;;72.40;13.70;;;13.80;65.70;;;;;;5092087;28;20451;-85
2022/11/18 00:16:19;;;;;;;21.47;11.43;;;13.60;66.10;;;;;;5090346;28;20994;-86
2022/11/18 00:18:46;;;;;;;18.63;11.50;;;13.60;66.50;;;;;;5056933;28;20820;-86
2022/11/18 00:21:13;;;;;;;19.47;11.33;;;13.70;66.40;;;;;;5092548;28;20451;-86
2022/11/18 00:23:41;;;;;;;24.20;11.10;;;13.80;66.00;;;;;;5074887;28;20527;-86
2022/11/18 00:26:09;;;;;;;19.57;10.63;;;13.90;65.70;;;;;;5093403;28;20466;-85
2022/11/18 00:28:37;;;;;;;22.20;11.50;;;14.10;65.00;;;;;;5092500;28;20443;-86
2022/11/18 00:31:05;;;;;;;23.67;11.80;;;14.00;64.80;;;;;;5066725;28;20547;-85
2022/11/18 00:33:35;;;;;;;35.90;12.70;;;14.00;65.40;;;;;;5089717;28;20981;-86
2022/11/18 00:36:03;;;;;;;27.40;12.33;;;13.80;65.50;;;;;;5093706;28;21000;-87
2022/11/18 00:38:30;;;;;;;29.13;10.70;;;13.80;65.70;;;;;;5093377;28;20455;-83
2022/11/18 00:41:00;;;;;;;19.63;10.60;;;13.80;65.70;;;;;;5092201;28;21203;-85
2022/11/18 00:43:27;;;;;;;14.13;9.27;;;13.90;65.40;;;;;;5077623;28;20533;-87
2022/11/18 00:45:54;;;;;;;16.03;9.30;;;14.00;64.90;;;;;;5074915;28;20998;-86
2022/11/18 00:48:21;;;;;;;17.80;9.40;;;14.00;64.80;;;;;;5059660;28;20460;-86
2022/11/18 00:50:51;;;;;;;16.60;9.37;;;14.10;64.50;;;;;;5083493;28;20467;-87
2022/11/18 00:53:19;;;;;;;48.00;13.00;;;13.90;64.60;;;;;;5074113;28;21104;-87
2022/11/18 00:55:46;;;;;;;16.40;11.20;;;14.00;64.60;;;;;;5092364;28;20528;-86
2022/11/18 00:58:14;;;;;;;34.57;12.17;;;14.00;64.80;;;;;;5061773;28;20483;-85
2022/11/18 01:00:41;;;;;;;13.70;8.57;;;14.00;64.40;;;;;;5061908;28;20822;-86
2022/11/18 01:03:08;;;;;;;109.97;16.30;;;13.90;64.30;;;;;;5075889;28;20835;-87
2022/11/18 01:05:36;;;;;;;22.37;9.97;;;13.80;64.60;;;;;;5060006;28;20464;-86
2022/11/18 01:08:05;;;;;;;32.43;9.47;;;13.60;65.20;;;;;;5076687;28;20451;-86
2022/11/18 01:10:32;;;;;;;57.53;13.50;;;13.70;65.60;;;;;;5054967;28;20452;-86
2022/11/18 01:13:19;;;;;;;35.37;11.60;;;13.70;65.60;;;;;;5060362;28;20539;-86
2022/11/18 01:15:49;;;;;;;30.53;9.27;;;13.70;65.00;;;;;;5074830;28;20917;-86
2022/11/18 01:18:17;;;;;;;34.27;9.10;;;13.70;65.60;;;;;;5093471;28;20488;-86
2022/11/18 01:20:45;;;;;;;17.90;7.57;;;13.60;64.70;;;;;;5091412;28;20503;-87
2022/11/18 01:23:14;;;;;;;11.93;8.00;;;13.30;66.10;;;;;;5073772;28;20463;-85
2022/11/18 01:25:42;;;;;;;12.10;6.90;;;13.20;66.60;;;;;;5089999;28;20470;-85
2022/11/18 01:28:10;;;;;;;9.80;7.10;;;13.40;65.90;;;;;;5055823;28;20474;-85
2022/11/18 01:30:38;;;;;;;8.77;6.40;;;13.60;65.90;;;;;;5064759;28;21016;-85
2022/11/18 01:33:06;;;;;;;9.93;6.93;;;13.70;64.40;;;;;;5093748;28;20490;-85
2022/11/18 01:35:35;;;;;;;12.03;8.03;;;13.80;63.80;;;;;;5070150;28;21260;-86
2022/11/18 01:38:02;;;;;;;20.70;10.27;;;13.90;63.60;;;;;;5088716;28;20455;-86
2022/11/18 01:40:31;;;;;;;17.13;8.43;;;13.90;63.50;;;;;;5058506;28;20511;-86
2022/11/18 01:42:58;;;;;;;36.83;10.57;;;13.90;63.60;;;;;;5073133;28;20539;-86
2022/11/18 01:45:31;;;;;;;24.87;11.33;;;13.90;63.50;;;;;;5089223;28;20471;-85
2022/11/18 01:48:03;;;;;;;20.23;10.97;;;13.90;63.70;;;;;;5076887;28;20525;-85
2022/11/18 01:50:32;;;;;;;23.33;9.60;;;13.90;63.90;;;;;;5072727;28;20460;-84
2022/11/18 01:53:04;;;;;;;56.40;12.57;;;13.90;63.80;;;;;;5080882;28;20455;-86
2022/11/18 01:55:35;;;;;;;193.97;18.63;;;13.90;64.00;;;;;;5055387;28;22152;-87
2022/11/18 01:58:07;;;;;;;79.93;13.80;;;13.90;64.00;;;;;;5074327;28;20448;-85
2022/11/18 02:00:34;;;;;;;50.50;12.27;;;13.80;64.60;;;;;;5090353;28;21327;-86
2022/11/18 02:03:06;;;;;;;18.27;9.70;;;13.70;65.30;;;;;;5090397;28;20435;-86
2022/11/18 02:05:35;;;;;;;16.67;9.23;;;13.80;65.20;;;;;;5090522;28;20612;-88
2022/11/18 02:08:05;;;;;;;17.60;8.33;;;13.90;64.70;;;;;;5075719;28;20459;-85
2022/11/18 02:10:34;;;;;;;10.20;7.50;;;13.80;64.50;;;;;;5073250;28;22030;-84
2022/11/18 02:13:01;;;;;;;11.27;7.83;;;13.40;65.10;;;;;;5064794;28;20443;-85
2022/11/18 02:15:43;;;;;;;17.87;7.73;;;12.90;66.70;;;;;;5073999;28;20479;-87
2022/11/18 02:18:19;;;;;;;12.00;7.90;;;13.00;67.30;;;;;;5065098;28;20481;-87
2022/11/18 02:20:50;;;;;;;18.30;8.80;;;13.10;67.30;;;;;;5042756;28;20483;-86
2022/11/18 02:23:51;;;;;;;12.93;8.07;;;13.30;66.70;;;;;;5072002;28;20450;-86
2022/11/18 02:26:56;;;;;;;15.80;8.80;;;13.60;65.90;;;;;;5071389;28;20472;-86
2022/11/18 02:29:29;;;;;;;15.87;9.57;;;13.80;65.30;;;;;;5060318;28;20480;-86
2022/11/18 02:32:00;;;;;;;19.13;9.53;;;13.80;64.90;;;;;;5091058;28;21247;-85
2022/11/18 02:34:38;;;;;;;21.67;10.40;;;13.90;64.40;;;;;;5089179;28;20493;-85
2022/11/18 02:37:09;;;;;;;13.07;9.27;;;13.90;64.40;;;;;;5072712;28;20664;-88
2022/11/18 02:39:41;;;;;;;15.20;9.27;;;13.80;65.00;;;;;;5069574;28;20552;-86
2022/11/18 02:42:12;;;;;;;23.30;10.27;;;13.80;65.00;;;;;;5073203;28;20890;-86
2022/11/18 02:44:45;;;;;;;16.33;8.50;;;13.70;65.40;;;;;;5090037;28;20490;-87
2022/11/18 02:47:15;;;;;;;23.00;12.00;;;13.70;65.40;;;;;;5081267;28;20443;-85
2022/11/18 02:49:46;;;;;;;21.30;10.23;;;13.90;65.20;;;;;;5055427;28;20443;-85
2022/11/18 02:52:16;;;;;;;17.20;9.37;;;13.80;64.90;;;;;;5089856;28;20444;-85
2022/11/18 02:54:46;;;;;;;30.17;10.50;;;13.90;64.90;;;;;;5088060;28;20451;-86
2022/11/18 02:57:15;;;;;;;15.17;8.73;;;14.00;64.60;;;;;;5081242;28;20478;-88
2022/11/18 02:59:43;;;;;;;17.50;10.10;;;14.10;64.30;;;;;;5071801;28;21068;-86
2022/11/18 03:02:16;;;;;;;14.87;9.40;;;14.10;64.40;;;;;;5074475;28;20497;-86
2022/11/18 03:04:44;;;;;;;14.60;8.57;;;14.10;64.40;;;;;;5057514;28;20436;-86
2022/11/18 03:07:18;;;;;;;13.47;8.13;;;14.10;64.10;;;;;;5074267;28;21245;-87
2022/11/18 03:09:48;;;;;;;13.13;8.30;;;14.10;64.20;;;;;;5090273;28;20958;-86
2022/11/18 03:12:23;;;;;;;16.30;10.77;;;13.90;64.60;;;;;;5088822;28;20454;-85
2022/11/18 03:15:01;;;;;;;16.63;8.83;;;13.80;65.00;;;;;;5090638;28;20450;-87
2022/11/18 03:17:34;;;;;;;18.27;9.53;;;13.90;64.90;;;;;;5073208;28;20495;-87
2022/11/18 03:20:10;;;;;;;16.87;9.50;;;14.00;64.70;;;;;;5090739;28;20448;-85
2022/11/18 03:22:42;;;;;;;19.30;11.20;;;14.00;64.70;;;;;;5057299;28;20442;-87
2022/11/18 03:25:13;;;;;;;22.00;9.80;;;13.70;65.20;;;;;;5057084;28;20499;-86
2022/11/18 03:27:48;;;;;;;44.17;11.10;;;13.40;66.30;;;;;;5048032;28;20456;-89
2022/11/18 03:30:20;;;;;;;32.93;9.90;;;13.30;66.90;;;;;;5071763;28;21039;-85
2022/11/18 03:32:53;;;;;;;51.53;10.63;;;13.40;66.80;;;;;;5062347;28;20447;-86
2022/11/18 03:35:24;;;;;;;78.73;12.60;;;13.70;66.20;;;;;;5055354;28;20507;-86
2022/11/18 03:37:57;;;;;;;15.40;8.80;;;13.70;65.30;;;;;;5074790;28;20962;-85
2022/11/18 03:40:28;;;;;;;14.40;8.90;;;13.80;65.40;;;;;;5071041;28;20452;-85
2022/11/18 03:43:00;;;;;;;17.00;9.87;;;14.00;65.20;;;;;;5093048;28;20463;-87
2022/11/18 03:45:34;;;;;;;17.43;9.67;;;14.00;64.90;;;;;;5047777;28;20519;-87
2022/11/18 03:48:08;;;;;;;16.00;8.53;;;14.00;64.70;;;;;;5058117;28;20499;-86
2022/11/18 03:50:40;;;;;;;14.87;8.57;;;14.00;65.20;;;;;;5042281;28;20450;-87
2022/11/18 03:53:08;;;;;;;15.40;8.37;;;14.00;65.00;;;;;;5041318;28;20740;-86
2022/11/18 03:55:40;;;;;;;13.93;9.47;;;14.10;64.60;;;;;;5088872;28;21033;-86
2022/11/18 03:58:11;;;;;;;14.90;9.63;;;14.10;64.30;;;;;;5081396;28;20458;-88
2022/11/18 04:00:43;;;;;;;15.47;9.07;;;14.00;64.60;;;;;;5070182;28;20443;-86
2022/11/18 04:03:11;;;;;;;16.47;10.20;;;14.00;64.60;;;;;;5073320;28;20538;-85
2022/11/18 04:05:41;;;;;;;16.43;10.27;;;13.90;64.80;;;;;;5079532;28;20464;-86
2022/11/18 04:08:11;;;;;;;19.20;9.37;;;13.90;65.00;;;;;;5073962;28;21122;-86
2022/11/18 04:10:43;;;;;;;16.30;9.10;;;14.00;64.70;;;;;;5092256;28;20443;-87
2022/11/18 04:13:15;;;;;;;17.90;9.53;;;14.10;64.50;;;;;;5094649;28;20462;-88
2022/11/18 04:15:43;;;;;;;15.50;8.93;;;14.10;64.30;;;;;;5062868;28;20490;-86
2022/11/18 04:18:11;;;;;;;28.87;9.23;;;14.20;64.20;;;;;;5095541;28;20442;-86
2022/11/18 04:20:39;;;;;;;19.27;9.60;;;14.20;63.90;;;;;;5053364;28;20440;-87
2022/11/18 04:23:06;;;;;;;18.20;9.63;;;14.10;63.90;;;;;;5057885;28;20448;-87
2022/11/18 04:25:34;;;;;;;17.20;9.77;;;14.00;64.70;;;;;;5057102;28;20990;-84
2022/11/18 04:28:01;;;;;;;13.80;9.27;;;13.90;65.10;;;;;;5074675;28;20803;-85
2022/11/18 04:30:28;;;;;;;16.50;10.10;;;13.90;65.00;;;;;;5078005;28;20462;-85
2022/11/18 04:32:56;;;;;;;14.67;8.80;;;14.00;64.70;;;;;;5073719;28;20456;-86
2022/11/18 04:35:23;;;;;;;13.60;9.03;;;14.00;64.40;;;;;;5072220;28;21069;-85
2022/11/18 04:37:51;;;;;;;17.33;9.60;;;13.90;64.60;;;;;;5073037;28;20905;-87
2022/11/18 04:40:18;;;;;;;20.33;9.97;;;13.80;65.30;;;;;;5075910;28;20532;-87
2022/11/18 04:42:45;;;;;;;16.90;10.30;;;13.90;64.90;;;;;;5057517;28;20457;-88
2022/11/18 04:45:12;;;;;;;16.13;9.60;;;14.00;65.10;;;;;;5072836;28;20475;-85
2022/11/18 04:47:39;;;;;;;21.40;9.80;;;14.00;65.00;;;;;;5082207;28;20444;-86
2022/11/18 04:50:08;;;;;;;17.50;9.67;;;14.10;64.60;;;;;;5073125;28;20832;-86
2022/11/18 04:52:35;;;;;;;16.63;9.90;;;14.10;64.20;;;;;;5087413;28;20436;-88
2022/11/18 04:55:02;;;;;;;17.30;10.00;;;14.10;64.50;;;;;;5073047;28;20475;-85
2022/11/18 04:57:29;;;;;;;19.07;9.27;;;14.00;64.80;;;;;;5070592;28;20550;-87
2022/11/18 04:59:56;;;;;;;18.40;9.50;;;14.00;65.20;;;;;;5075392;28;20456;-85
2022/11/18 05:02:23;;;;;;;17.63;9.13;;;13.90;65.30;;;;;;5072995;28;20451;-85
2022/11/18 05:04:50;;;;;;;16.57;9.70;;;13.90;65.30;;;;;;5070504;28;20945;-86
2022/11/18 05:07:19;;;;;;;17.93;10.30;;;13.90;65.40;;;;;;5080831;28;20444;-85
2022/11/18 05:09:45;;;;;;;17.70;9.70;;;13.90;65.40;;;;;;5073577;28;20455;-85
2022/11/18 05:15:07;;;;;;;15.57;9.80;;;14.00;64.40;;;;;;5047748;28;20830;-87
2022/11/18 05:17:35;;;;;;;17.00;10.00;;;14.00;64.60;;;;;;5088023;28;20472;-86
2022/11/18 05:20:02;;;;;;;15.40;9.90;;;13.80;65.10;;;;;;5073532;28;21008;-86
2022/11/18 05:22:30;;;;;;;18.47;9.10;;;13.70;66.20;;;;;;5071757;28;20458;-86
2022/11/18 05:24:57;;;;;;;20.13;10.00;;;13.70;66.50;;;;;;5071172;28;20527;-87
2022/11/18 05:27:24;;;;;;;25.80;10.70;;;13.80;66.10;;;;;;5070820;28;20492;-85
2022/11/18 05:29:51;;;;;;;26.47;10.90;;;13.90;65.70;;;;;;5091657;28;20470;-87
2022/11/18 05:32:19;;;;;;;21.33;10.40;;;14.00;65.30;;;;;;5072386;28;20462;-87
2022/11/18 05:34:46;;;;;;;14.80;10.10;;;14.10;65.10;;;;;;5087559;28;20474;-87
2022/11/18 05:37:13;;;;;;;23.00;9.00;;;14.10;64.90;;;;;;5059866;28;20844;-86
2022/11/18 05:39:41;;;;;;;14.90;9.60;;;14.10;64.60;;;;;;5072677;28;20493;-86
2022/11/18 05:44:55;;;;;;;17.83;10.37;;;13.80;65.20;;;;;;5072481;28;20435;-87
2022/11/18 05:47:23;;;;;;;25.63;13.70;;;13.60;66.40;;;;;;5057299;28;20465;-87
2022/11/18 05:49:51;;;;;;;30.00;13.20;;;13.60;66.80;;;;;;5057867;28;20449;-87
2022/11/18 05:52:18;;;;;;;22.27;12.50;;;13.70;66.10;;;;;;5044469;28;20482;-86
2022/11/18 05:54:51;;;;;;;25.30;13.80;;;13.70;65.70;;;;;;5089077;28;20541;-85
2022/11/18 05:57:18;;;;;;;22.13;11.50;;;13.70;66.30;;;;;;5068305;28;20475;-85
2022/11/18 05:59:45;;;;;;;15.67;10.33;;;13.50;67.00;;;;;;5087830;28;20451;-88
2022/11/18 06:02:16;;;;;;;15.87;10.30;;;13.70;66.60;;;;;;5088935;28;20465;-86
2022/11/18 06:04:45;;;;;;;24.83;12.63;;;13.90;66.20;;;;;;5043493;28;20455;-86
2022/11/18 06:07:17;;;;;;;16.80;10.60;;;14.00;65.70;;;;;;5079837;28;20800;-86
2022/11/18 06:09:48;;;;;;;14.67;9.63;;;14.10;65.30;;;;;;5074246;28;20482;-86
2022/11/18 06:12:19;;;;;;;15.10;9.00;;;14.20;65.00;;;;;;5088234;28;20555;-88
2022/11/18 06:14:51;;;;;;;13.60;8.80;;;14.20;64.60;;;;;;5071200;28;20454;-87
2022/11/18 06:17:23;;;;;;;12.20;7.43;;;14.30;64.40;;;;;;5058254;28;20503;-85
2022/11/18 06:19:50;;;;;;;12.87;9.30;;;14.30;64.50;;;;;;5088401;28;20543;-86
2022/11/18 06:22:17;;;;;;;13.97;8.90;;;14.30;64.60;;;;;;5069000;28;20479;-86
2022/11/18 06:24:45;;;;;;;13.90;8.20;;;14.40;64.40;;;;;;5070157;28;20603;-86
2022/11/18 06:27:14;;;;;;;10.50;8.30;;;14.30;64.10;;;;;;5084541;28;20447;-87
2022/11/18 06:29:41;;;;;;;11.30;7.73;;;14.30;64.30;;;;;;5086894;28;20469;-85
2022/11/18 06:32:09;;;;;;;13.70;9.73;;;14.30;64.50;;;;;;5070553;28;20885;-87
2022/11/18 06:34:38;;;;;;;13.70;8.83;;;14.30;64.40;;;;;;5054311;28;20774;-86
2022/11/18 06:37:13;;;;;;;12.93;8.80;;;14.30;64.30;;;;;;5053332;28;20554;-86
2022/11/18 06:39:39;;;;;;;14.30;9.50;;;14.00;65.50;;;;;;5071676;28;20460;-86
2022/11/18 06:42:06;;;;;;;15.17;9.70;;;14.10;65.50;;;;;;5071699;28;20802;-86
2022/11/18 06:44:34;;;;;;;26.57;12.00;;;14.00;65.10;;;;;;5065747;28;20541;-87
2022/11/18 06:47:02;;;;;;;18.17;9.80;;;13.50;67.10;;;;;;5087321;28;21013;-85
2022/11/18 06:49:29;;;;;;;22.83;12.77;;;13.70;66.90;;;;;;5088023;28;20443;-86
2022/11/18 06:51:56;;;;;;;21.50;12.13;;;13.70;67.20;;;;;;5054395;28;20443;-87
2022/11/18 06:54:23;;;;;;;24.77;16.00;;;13.40;67.60;;;;;;5076539;28;20451;-86
2022/11/18 06:56:50;;;;;;;31.07;16.33;;;13.60;67.00;;;;;;5066977;28;20478;-87
2022/11/18 06:59:22;;;;;;;19.97;14.50;;;13.60;67.50;;;;;;5042246;28;20451;-85
2022/11/18 07:01:52;;;;;;;22.13;13.00;;;13.80;67.20;;;;;;5086002;28;20491;-86
2022/11/18 07:04:19;;;;;;;12.83;9.23;;;13.60;67.30;;;;;;5088142;28;20451;-85
2022/11/18 07:06:46;;;;;;;5.70;3.70;;;13.60;67.10;;;;;;5088011;28;20509;-86
2022/11/18 07:09:13;;;;;;;6.07;3.40;;;13.60;66.70;;;;;;5058895;28;20452;-85
2022/11/18 07:11:40;;;;;;;5.50;4.90;;;13.40;67.10;;;;;;5063427;28;20458;-85
2022/11/18 07:14:07;;;;;;;6.93;4.90;;;13.10;68.30;;;;;;5087299;28;20449;-85
2022/11/18 07:16:35;;;;;;;4.50;3.83;;;12.90;69.60;;;;;;5066799;28;20829;-84
2022/11/18 07:19:09;;;;;;;4.90;3.33;;;12.80;70.00;;;;;;5051871;28;20455;-88
2022/11/18 07:21:36;;;;;;;4.50;3.60;;;13.00;70.00;;;;;;5057787;28;20447;-85
2022/11/18 07:24:06;;;;;;;5.23;4.20;;;13.10;69.90;;;;;;5084647;28;20529;-86
2022/11/18 07:26:33;;;;;;;7.90;5.20;;;13.20;69.10;;;;;;5086546;28;20880;-86
2022/11/18 07:29:00;;;;;;;5.23;4.23;;;13.50;68.60;;;;;;5068042;28;20996;-86
2022/11/18 07:31:27;;;;;;;9.40;4.23;;;13.40;68.20;;;;;;5084859;28;20570;-85
2022/11/18 07:33:54;;;;;;;9.00;4.50;;;13.30;68.50;;;;;;5070739;28;20448;-84
2022/11/18 07:36:24;;;;;;;5.00;4.23;;;13.40;68.90;;;;;;5067161;28;20567;-85
2022/11/18 07:38:52;;;;;;;6.53;4.80;;;13.60;68.20;;;;;;5086052;28;20484;-85
2022/11/18 07:41:20;;;;;;;5.70;5.10;;;13.60;68.20;;;;;;5057674;28;20451;-85
2022/11/18 07:43:49;;;;;;;6.40;5.10;;;13.70;68.30;;;;;;5070347;28;20444;-85
2022/11/18 07:46:18;;;;;;;7.70;5.10;;;13.50;67.90;;;;;;5079648;28;20471;-85
2022/11/18 07:48:46;;;;;;;5.27;4.30;;;13.70;68.20;;;;;;5072110;28;20447;-84
2022/11/18 07:51:16;;;;;;;6.90;4.43;;;13.70;68.10;;;;;;5074276;28;20442;-85
2022/11/18 07:53:45;;;;;;;6.27;4.47;;;13.80;67.80;;;;;;5091106;28;20978;-85
2022/11/18 07:56:12;;;;;;;4.70;4.30;;;13.90;67.50;;;;;;5062633;28;20471;-86
2022/11/18 07:58:39;;;;;;;4.53;4.13;;;14.10;67.20;;;;;;5071071;28;20487;-87
2022/11/18 08:01:08;;;;;;;5.37;3.60;;;14.10;67.10;;;;;;5072960;28;20565;-87
2022/11/18 08:03:35;;;;;;;8.87;4.10;;;14.10;66.80;;;;;;5093336;28;20457;-85
2022/11/18 08:06:03;;;;;;;6.20;4.70;;;13.90;67.40;;;;;;5056670;28;20514;-86
2022/11/18 08:08:30;;;;;;;8.43;5.10;;;14.00;67.10;;;;;;5071084;28;20453;-85
2022/11/18 08:11:01;;;;;;;6.20;4.57;;;13.90;67.60;;;;;;5054836;28;20448;-86
2022/11/18 08:13:29;;;;;;;4.60;4.00;;;14.00;67.10;;;;;;5073374;28;20447;-84
2022/11/18 08:15:56;;;;;;;4.80;3.20;;;13.90;67.00;;;;;;5066475;28;21060;-85
2022/11/18 08:18:24;;;;;;;6.23;4.53;;;14.00;66.70;;;;;;5091328;28;20475;-86
2022/11/18 08:20:51;;;;;;;4.87;3.73;;;14.00;67.00;;;;;;5080890;28;20459;-88
2022/11/18 08:23:18;;;;;;;8.13;3.93;;;14.20;67.10;;;;;;5055586;28;20446;-85
2022/11/18 08:25:46;;;;;;;8.10;4.77;;;14.30;66.40;;;;;;5070267;28;20463;-84
2022/11/18 08:28:15;;;;;;;7.30;4.70;;;14.50;66.00;;;;;;5068196;28;20436;-86
2022/11/18 08:30:42;;;;;;;6.80;5.90;;;14.50;65.80;;;;;;5086092;27;20456;-85
2022/11/18 08:33:08;;;;;;;7.03;6.03;;;14.50;66.00;;;;;;5086943;28;20454;-86
2022/11/18 08:35:35;;;;;;;8.90;7.40;;;14.60;66.00;;;;;;5069510;28;20475;-88
2022/11/18 08:38:02;;;;;;;8.23;7.53;;;14.70;65.60;;;;;;5089872;27;20569;-87
2022/11/18 08:40:30;;;;;;;4.57;4.23;;;14.80;64.90;;;;;;5066716;28;20476;-85
2022/11/18 08:42:57;;;;;;;19.83;10.63;;;14.80;64.20;;;;;;5080974;28;20948;-86
2022/11/18 08:45:25;;;;;;;4.27;3.13;;;14.70;64.70;;;;;;5090443;27;20987;-85
2022/11/18 08:47:52;;;;;;;11.50;5.40;;;14.40;65.10;;;;;;5088557;28;20461;-87
2022/11/18 08:50:20;;;;;;;150.90;49.03;;;14.30;66.10;;;;;;5072926;28;21336;-85
2022/11/18 08:52:47;;;;;;;9.80;6.83;;;14.40;65.80;;;;;;5064488;28;20879;-85
2022/11/18 08:55:14;;;;;;;64.40;29.63;;;14.30;66.50;;;;;;5076369;28;20494;-85
2022/11/18 08:57:41;;;;;;;28.60;15.53;;;14.50;65.40;;;;;;5091774;28;20489;-88
2022/11/18 09:00:09;;;;;;;7.63;6.13;;;14.50;65.10;;;;;;5087109;28;21018;-86
2022/11/18 09:02:37;;;;;;;52.23;29.27;;;14.30;65.90;;;;;;5066906;28;20951;-86
2022/11/18 09:05:05;;;;;;;8.23;5.27;;;14.40;65.70;;;;;;5067563;28;20468;-86
2022/11/18 09:07:32;;;;;;;12.70;9.90;;;14.40;65.80;;;;;;5069316;28;20582;-87
2022/11/18 09:09:59;;;;;;;6.03;3.13;;;14.30;65.80;;;;;;5088430;28;20484;-87
2022/11/18 09:12:26;;;;;;;4.67;4.13;;;14.30;66.00;;;;;;5068315;28;20444;-87
2022/11/18 09:14:53;;;;;;;3.00;2.70;;;14.20;66.60;;;;;;5089760;28;20451;-89
2022/11/18 09:17:20;;;;;;;2.37;2.17;;;14.20;66.20;;;;;;5059827;28;20467;-87
2022/11/18 09:19:48;;;;;;;1.83;1.63;;;14.10;66.60;;;;;;5089235;28;20763;-89
2022/11/18 09:22:15;;;;;;;3.13;1.90;;;14.20;66.10;;;;;;5077281;28;20447;-88
2022/11/18 09:24:43;;;;;;;52.83;28.77;;;14.20;66.00;;;;;;5085240;28;20595;-87
2022/11/18 09:27:11;;;;;;;22.30;14.40;;;13.90;66.90;;;;;;5071796;28;20541;-85
2022/11/18 09:29:37;;;;;;;4.73;4.20;;;13.60;67.70;;;;;;5067100;28;20981;-88
2022/11/18 09:32:05;;;;;;;3.10;2.90;;;13.40;68.50;;;;;;5090913;28;20454;-86
2022/11/18 09:34:34;;;;;;;4.77;4.37;;;13.50;68.30;;;;;;5058897;28;20462;-87
2022/11/18 09:37:05;;;;;;;4.93;3.53;;;13.30;68.90;;;;;;5091082;27;20478;-84
2022/11/18 09:39:35;;;;;;;3.90;3.37;;;13.30;69.10;;;;;;5086533;28;20439;-88
2022/11/18 09:42:19;;;;;;;3.20;2.70;;;13.40;69.20;;;;;;5071975;28;20444;-86
2022/11/18 09:45:01;;;;;;;3.87;3.57;;;13.30;68.90;;;;;;5074524;28;20458;-86
2022/11/18 09:47:31;;;;;;;6.47;3.20;;;13.50;68.60;;;;;;5073251;28;20564;-86
2022/11/18 09:50:02;;;;;;;2.97;2.20;;;13.50;68.20;;;;;;5075001;28;20562;-87
2022/11/18 09:52:33;;;;;;;3.23;3.00;;;13.50;68.30;;;;;;5075526;28;20460;-85
2022/11/18 09:55:00;;;;;;;8.07;7.33;;;13.50;68.30;;;;;;5071793;27;20447;-86
2022/11/18 09:57:39;;;;;;;2.77;2.57;;;13.70;68.10;;;;;;5073633;28;20486;-86
2022/11/18 10:00:14;;;;;;;3.33;2.50;;;13.80;67.60;;;;;;5057029;28;20451;-86
2022/11/18 10:03:03;;;;;;;10.17;7.00;;;13.50;68.50;;;;;;5073964;27;20953;-86
2022/11/18 10:05:33;;;;;;;5.50;4.90;;;13.40;69.00;;;;;;5084360;28;20955;-86
2022/11/18 10:08:15;;;;;;;7.30;4.23;;;13.50;69.00;;;;;;5096952;28;20461;-86
2022/11/18 10:10:51;;;;;;;7.87;6.17;;;13.60;68.80;;;;;;5072201;28;20447;-85
2022/11/18 10:13:27;;;;;;;7.93;7.10;;;13.80;68.50;;;;;;5058224;28;20549;-86
2022/11/18 10:16:05;;;;;;;4.13;3.67;;;13.80;68.10;;;;;;5044971;28;20847;-86
2022/11/18 10:18:39;;;;;;;2.70;2.50;;;13.60;68.60;;;;;;5073804;27;20463;-85
2022/11/18 10:21:16;;;;;;;6.00;4.70;;;13.60;68.80;;;;;;5074335;28;21022;-86
2022/11/18 10:23:52;;;;;;;1.70;1.60;;;13.60;68.70;;;;;;5076049;28;21241;-90
2022/11/18 10:26:32;;;;;;;2.97;2.17;;;13.60;68.20;;;;;;5059660;28;21392;-87
2022/11/18 10:28:59;;;;;;;2.27;2.07;;;13.50;68.90;;;;;;5076538;28;20478;-87
2022/11/18 10:31:26;;;;;;;3.17;1.93;;;13.40;68.50;;;;;;5076012;28;20463;-87
2022/11/18 10:33:58;;;;;;;3.20;1.80;;;13.40;68.20;;;;;;5060402;28;21146;-86
2022/11/18 10:36:27;;;;;;;2.43;2.23;;;13.50;67.90;;;;;;5077214;28;20507;-87
2022/11/18 10:39:09;;;;;;;57.23;39.43;;;13.70;67.90;;;;;;5091926;27;20464;-88
2022/11/18 10:41:41;;;;;;;6.63;4.90;;;13.60;67.50;;;;;;5092392;28;20453;-86
2022/11/18 10:44:28;;;;;;;4.27;3.87;;;13.80;68.00;;;;;;5089694;27;20528;-86
2022/11/18 10:46:55;;;;;;;2.70;2.50;;;13.80;66.70;;;;;;5073686;28;20553;-86
2022/11/18 10:49:22;;;;;;;4.03;2.10;;;13.90;66.90;;;;;;5091563;28;20541;-88
2022/11/18 10:52:06;;;;;;;2.30;2.10;;;13.90;66.80;;;;;;5092807;28;20451;-86
2022/11/18 10:54:34;;;;;;;2.53;2.03;;;13.90;66.20;;;;;;5058255;28;20481;-87
2022/11/18 10:57:07;;;;;;;3.23;2.40;;;14.00;66.60;;;;;;5091904;28;20600;-88
2022/11/18 10:59:38;;;;;;;4.10;3.80;;;13.90;66.90;;;;;;5089570;28;20581;-86
2022/11/18 11:02:17;;;;;;;6.33;5.83;;;13.90;66.90;;;;;;5074245;28;20458;-88
2022/11/18 11:04:45;;;;;;;1.60;1.50;;;14.10;65.60;;;;;;5064092;28;20454;-86
2022/11/18 11:07:17;;;;;;;4.20;1.83;;;14.00;65.50;;;;;;5074277;28;20599;-87
2022/11/18 11:10:00;;;;;;;1.80;1.70;;;13.90;66.10;;;;;;5072136;28;20546;-87
2022/11/18 11:12:31;;;;;;;1.90;1.37;;;14.00;66.00;;;;;;5080096;28;20452;-87
2022/11/18 11:15:01;;;;;;;1.20;1.00;;;14.10;65.60;;;;;;5090214;28;20869;-85
2022/11/18 11:17:33;;;;;;;2.10;2.00;;;14.10;65.50;;;;;;5098850;27;20470;-86
2022/11/18 11:20:05;;;;;;;1.67;1.53;;;14.30;65.70;;;;;;5078544;28;20826;-87
2022/11/18 11:22:32;;;;;;;2.00;1.90;;;14.10;65.30;;;;;;5060156;28;20451;-84
2022/11/18 11:25:01;;;;;;;1.87;1.30;;;13.90;66.80;;;;;;5079616;27;20466;-86
2022/11/18 11:27:41;;;;;;;3.50;1.90;;;13.80;66.10;;;;;;5070629;28;20508;-86
2022/11/18 11:30:17;;;;;;;1.53;1.43;;;13.80;66.00;;;;;;5098013;28;20439;-87
2022/11/18 11:33:13;;;;;;;3.07;2.77;;;14.10;65.80;;;;;;5079677;27;20450;-88
2022/11/18 11:35:51;;;;;;;2.57;2.37;;;13.80;66.00;;;;;;5093517;28;20475;-85
2022/11/18 11:38:28;;;;;;;3.53;3.10;;;13.70;66.80;;;;;;5097131;28;20463;-86
2022/11/18 11:41:04;;;;;;;9.67;5.30;;;13.80;66.80;;;;;;5084648;28;20480;-88
2022/11/18 11:43:41;;;;;;;3.97;3.43;;;13.90;66.50;;;;;;5080928;28;20915;-86
2022/11/18 11:46:27;;;;;;;2.10;2.00;;;14.00;67.10;;;;;;5083945;28;20553;-86
2022/11/18 11:49:06;;;;;;;1.77;1.50;;;14.00;66.80;;;;;;5073167;28;20452;-86
2022/11/18 11:51:40;;;;;;;1.57;1.20;;;14.10;66.40;;;;;;5100139;27;20439;-87
2022/11/18 11:54:24;;;;;;;1.67;1.50;;;14.10;66.50;;;;;;5078487;28;20534;-88
2022/11/18 11:56:58;;;;;;;2.00;1.60;;;13.90;66.60;;;;;;5078405;27;20485;-87
2022/11/18 11:59:32;;;;;;;4.33;3.70;;;13.90;67.00;;;;;;5098116;28;20499;-85
2022/11/18 12:02:40;;;;;;;9.63;3.67;;;14.00;66.70;;;;;;5086790;27;20634;-86
2022/11/18 12:05:17;;;;;;;1.90;1.70;;;14.00;66.80;;;;;;5075656;27;20881;-89
2022/11/18 12:07:49;;;;;;;1.97;1.87;;;13.90;65.60;;;;;;5081734;28;20492;-85
2022/11/18 12:10:27;;;;;;;3.73;2.77;;;13.90;66.40;;;;;;5080891;28;20482;-86
2022/11/18 12:13:09;;;;;;;2.50;1.60;;;13.90;67.10;;;;;;5102823;28;20462;-86
2022/11/18 12:15:49;;;;;;;2.50;2.30;;;13.80;67.50;;;;;;5098776;28;20467;-85
2022/11/18 12:18:23;;;;;;;3.70;2.37;;;13.60;67.70;;;;;;5082704;28;20562;-86
2022/11/18 12:20:55;;;;;;;67.83;24.93;;;13.70;67.60;;;;;;5097757;28;20446;-86
2022/11/18 12:23:25;;;;;;;47.30;19.73;;;13.60;68.20;;;;;;5088175;28;20542;-88
2022/11/18 12:26:04;;;;;;;24.10;9.20;;;13.80;67.50;;;;;;5081579;28;20459;-88
2022/11/18 12:28:36;;;;;;;32.43;14.53;;;14.00;67.30;;;;;;5063767;28;20477;-87
2022/11/18 12:31:34;;;;;;;31.17;15.07;;;14.00;67.40;;;;;;5098456;27;20539;-87
2022/11/18 12:34:38;;;;;;;58.33;25.43;;;14.10;67.00;;;;;;5072048;28;20452;-87
2022/11/18 12:37:53;;;;;;;26.20;13.47;;;13.90;66.90;;;;;;5020933;28;20509;-87
2022/11/18 12:40:42;;;;;;;15.80;7.87;;;14.00;67.10;;;;;;4946053;28;20544;-85
2022/11/18 12:44:04;;;;;;;54.27;23.63;;;14.10;67.20;;;;;;5089858;27;20447;-86
2022/11/18 12:46:53;;;;;;;32.83;18.00;;;14.10;67.50;;;;;;5051086;28;20509;-85
2022/11/18 12:50:03;;;;;;;20.30;8.60;;;14.10;67.30;;;;;;5096511;28;20443;-87
2022/11/18 12:52:54;;;;;;;22.67;15.50;;;14.20;67.60;;;;;;5060847;28;20467;-87
2022/11/18 12:55:26;;;;;;;3.70;3.40;;;14.30;67.00;;;;;;5052346;28;20475;-88
2022/11/18 12:57:53;;;;;;;3.33;3.03;;;14.20;67.80;;;;;;5086220;28;20955;-85
2022/11/18 13:03:31;;;;;;;6.20;5.17;;;14.40;66.10;;;;;;5112993;27;20535;-88
2022/11/18 13:06:02;;;;;;;8.47;5.97;;;14.40;66.00;;;;;;5088255;28;21366;-89
2022/11/18 13:08:30;;;;;;;6.90;6.23;;;14.30;65.60;;;;;;5090462;28;20508;-88
2022/11/18 13:17:50;;;;;;;6.50;4.13;;;14.50;65.50;;;;;;5086624;28;20516;-87